createdAt,value
2019-03-04T00:03:14.091Z,99228.28
2019-03-04T00:07:18.280Z,99226.97
2019-03-04T00:11:22.514Z,99227.42
2019-03-04T00:15:26.755Z,99229.14
2019-03-04T00:19:31.014Z,99236.58
2019-03-04T00:23:35.240Z,99231.32
2019-03-04T00:27:39.941Z,99227.40
2019-03-04T00:31:44.510Z,99226.96
2019-03-04T00:35:48.690Z,99212.97
2019-03-04T00:39:52.932Z,99196.35
2019-03-04T00:43:57.112Z,99194.16
2019-03-04T00:48:02.163Z,99192.41
2019-03-04T00:52:06.493Z,99193.28
2019-03-04T00:56:11.999Z,99184.09
2019-03-04T01:00:19.315Z,99183.22
2019-03-04T01:04:26.417Z,99180.62
2019-03-04T01:08:31.540Z,99183.69
2019-03-04T01:12:35.983Z,99168.80
2019-03-04T01:16:40.227Z,99158.73
2019-03-04T01:20:44.466Z,99153.91
2019-03-04T01:24:48.651Z,99149.56
2019-03-04T01:28:54.833Z,99145.18
2019-03-04T01:32:59.167Z,99152.61
2019-03-04T01:37:03.782Z,99142.99
2019-03-04T01:41:08.548Z,99140.37
2019-03-04T01:45:14.384Z,99141.69
2019-03-04T01:49:20.114Z,99149.11
2019-03-04T01:53:26.591Z,99136.88
2019-03-04T01:57:31.151Z,99138.18
2019-03-04T02:05:38.369Z,99137.72
2019-03-04T02:09:42.942Z,99139.45
2019-03-04T02:13:47.215Z,99125.92
2019-03-04T02:17:51.405Z,99129.41
2019-03-04T02:21:55.649Z,99118.51
2019-03-04T02:26:18.646Z,99119.38
2019-03-04T02:30:26.357Z,99134.23
2019-03-04T02:34:31.950Z,99135.47
2019-03-04T02:38:37.493Z,99148.13
2019-03-04T02:42:42.367Z,99137.22
2019-03-04T02:46:46.592Z,99131.93
2019-03-04T02:50:50.772Z,99127.57
2019-03-04T02:54:55.309Z,99139.81
2019-03-04T02:58:59.533Z,99136.73
2019-03-04T03:03:03.858Z,99132.81
2019-03-04T03:07:08.079Z,99135.88
2019-03-04T03:11:13.268Z,99132.41
2019-03-04T03:19:21.165Z,99127.15
2019-03-04T03:23:26.191Z,99123.22
2019-03-04T03:27:31.382Z,99120.16
2019-03-04T03:31:36.824Z,99120.61
2019-03-04T03:35:45.270Z,99116.66
2019-03-04T03:39:49.460Z,99125.84
2019-03-04T03:43:53.684Z,99128.46
2019-03-04T03:47:57.916Z,99121.44
2019-03-04T03:52:02.135Z,99104.84
2019-03-04T03:56:06.379Z,99080.80
2019-03-04T04:00:14.086Z,99075.59
2019-03-04T04:04:18.332Z,99079.06
2019-03-04T04:08:22.590Z,99080.80
2019-03-04T04:12:26.837Z,99066.84
2019-03-04T04:16:31.057Z,99065.10
2019-03-04T04:20:35.291Z,99071.66
2019-03-04T04:24:39.870Z,99053.31
2019-03-04T04:28:44.401Z,99056.80
2019-03-04T04:32:48.632Z,99057.66
2019-03-04T04:36:54.407Z,99062.47
2019-03-04T04:40:59.886Z,99057.22
2019-03-04T04:45:04.738Z,99044.56
2019-03-04T04:49:08.985Z,99049.81
2019-03-04T04:53:13.179Z,99043.70
2019-03-04T04:57:21.691Z,99034.07
2019-03-04T05:01:26.051Z,99033.19
2019-03-04T05:05:30.655Z,99028.38
2019-03-04T05:09:35.052Z,99026.21
2019-03-04T05:13:39.390Z,99020.06
2019-03-04T05:17:43.651Z,99019.20
2019-03-04T05:25:51.357Z,99005.20
2019-03-04T05:29:55.728Z,99005.20
2019-03-04T05:34:00.358Z,99006.48
2019-03-04T05:38:04.597Z,98998.20
2019-03-04T05:42:09.360Z,98983.37
2019-03-04T05:46:13.878Z,98977.24
2019-03-04T05:50:19.064Z,98967.66
2019-03-04T05:54:24.103Z,98970.71
2019-03-04T05:58:29.427Z,98964.17
2019-03-04T06:02:33.606Z,98958.93
2019-03-04T06:06:56.306Z,98955.39
2019-03-04T06:11:02.788Z,98947.95
2019-03-04T06:15:11.263Z,98950.58
2019-03-04T06:19:15.449Z,98954.03
2019-03-04T06:23:19.696Z,98941.42
2019-03-04T06:27:24.038Z,98944.48
2019-03-04T06:31:28.258Z,98943.59
2019-03-04T06:35:34.384Z,98940.56
2019-03-04T06:39:38.628Z,98930.97
2019-03-04T06:43:44.226Z,98922.69
2019-03-04T06:47:50.168Z,98925.75
2019-03-04T06:51:55.671Z,98914.82
2019-03-04T06:56:07.140Z,98920.52
2019-03-04T07:00:52.990Z,98919.23
2019-03-04T07:05:23.243Z,98910.92
2019-03-04T07:09:27.558Z,98907.45
2019-03-04T07:13:31.930Z,98900.91
2019-03-04T07:17:36.740Z,98892.16
2019-03-04T07:21:42.046Z,98882.12
2019-03-04T07:25:46.312Z,98881.23
2019-03-04T07:29:50.856Z,98874.66
2019-03-04T07:33:55.598Z,98878.18
2019-03-04T07:38:16.048Z,98876.80
2019-03-04T07:42:21.630Z,98877.66
2019-03-04T07:46:25.832Z,98864.87
2019-03-04T07:50:30.102Z,98863.89
2019-03-04T07:54:36.663Z,98859.81
2019-03-04T07:58:42.522Z,98850.45
2019-03-04T08:02:49.494Z,98854.22
2019-03-04T08:07:23.035Z,98852.27
2019-03-04T08:12:07.247Z,98843.36
2019-03-04T08:16:11.996Z,98836.98
2019-03-04T08:20:16.377Z,98835.02
2019-03-04T08:24:20.612Z,98812.81
2019-03-04T08:28:24.842Z,98788.34
2019-03-04T08:32:31.043Z,98765.16
2019-03-04T08:36:36.647Z,98754.79
2019-03-04T08:40:42.432Z,98754.79
2019-03-04T08:44:47.646Z,98749.68
2019-03-04T08:48:52.987Z,98751.09
2019-03-04T08:52:57.640Z,98750.22
2019-03-04T08:57:04.158Z,98741.41
2019-03-04T09:01:09.781Z,98741.41
2019-03-04T09:05:14.985Z,98727.23
2019-03-04T09:09:19.189Z,98700.45
2019-03-04T09:13:23.810Z,98699.03
2019-03-04T09:17:28.103Z,98694.23
2019-03-04T09:21:32.282Z,98686.09
2019-03-04T09:25:51.978Z,98673.59
2019-03-04T09:29:56.896Z,98663.30
2019-03-04T09:34:01.634Z,98660.47
2019-03-04T09:38:06.902Z,98655.81
2019-03-04T09:42:16.669Z,98647.50
2019-03-04T09:46:21.695Z,98632.13
2019-03-04T09:50:26.184Z,98612.78
2019-03-04T09:54:30.720Z,98613.37
2019-03-04T09:58:34.917Z,98592.13
2019-03-04T10:02:44.519Z,98584.48
2019-03-04T10:07:25.940Z,98587.44
2019-03-04T10:12:06.740Z,98581.55
2019-03-04T10:16:42.165Z,98569.50
2019-03-04T10:21:30.274Z,98567.56
2019-03-04T10:25:57.919Z,98550.59
2019-03-04T10:30:46.321Z,98536.08
2019-03-04T10:35:41.413Z,98528.61
2019-03-04T10:40:08.873Z,98514.95
2019-03-04T10:44:37.858Z,98509.83
2019-03-04T10:48:42.292Z,98518.20
2019-03-04T10:52:46.976Z,98500.05
2019-03-04T10:56:51.251Z,98495.00
2019-03-04T11:00:55.433Z,98489.89
2019-03-04T11:04:59.674Z,98481.61
2019-03-04T11:09:08.312Z,98459.99
2019-03-04T11:13:13.178Z,98458.33
2019-03-04T11:17:17.504Z,98443.84
2019-03-04T11:21:21.792Z,98432.03
2019-03-04T11:25:26.056Z,98416.77
2019-03-04T11:29:30.318Z,98409.32
2019-03-04T11:33:34.573Z,98398.33
2019-03-04T11:37:39.088Z,98386.56
2019-03-04T11:41:43.326Z,98377.81
2019-03-04T11:45:47.508Z,98372.27
2019-03-04T11:49:53.445Z,98365.31
2019-03-04T11:53:57.888Z,98349.48
2019-03-04T11:58:02.172Z,98326.22
2019-03-04T12:02:09.921Z,98322.00
2019-03-04T12:06:15.103Z,98302.17
2019-03-04T12:10:19.700Z,98283.38
2019-03-04T12:14:23.929Z,98266.78
2019-03-04T12:18:28.151Z,98261.45
2019-03-04T12:22:32.402Z,98241.14
2019-03-04T12:26:36.635Z,98239.92
2019-03-04T12:30:40.965Z,98252.78
2019-03-04T12:34:45.692Z,98238.71
2019-03-04T12:38:50.066Z,98210.77
2019-03-04T12:42:54.412Z,98173.66
2019-03-04T12:46:58.653Z,98138.97
2019-03-04T12:51:03.906Z,98127.86
2019-03-04T12:55:09.118Z,98118.93
2019-03-04T12:59:13.297Z,98104.88
2019-03-04T13:03:22.725Z,98092.22
2019-03-04T13:07:27.384Z,98077.74
2019-03-04T13:11:31.609Z,98077.67
2019-03-04T13:15:36.144Z,98064.92
2019-03-04T13:19:40.411Z,98044.59
2019-03-04T13:23:44.608Z,98045.84
2019-03-04T13:27:49.967Z,98036.60
2019-03-04T13:31:54.993Z,98039.24
2019-03-04T13:36:01.398Z,98031.69
2019-03-04T13:40:07.273Z,98025.36
2019-03-04T13:44:13.023Z,98015.89
2019-03-04T13:48:19.316Z,97995.24
2019-03-04T13:52:23.516Z,97984.69
2019-03-04T13:56:27.723Z,97971.58
2019-03-04T14:00:32.582Z,97959.36
2019-03-04T14:04:38.553Z,97965.08
2019-03-04T14:08:44.677Z,97940.47
2019-03-04T14:12:51.495Z,97952.05
2019-03-04T14:16:55.746Z,97942.09
2019-03-04T14:21:02.249Z,97932.69
2019-03-04T14:25:08.827Z,97927.76
2019-03-04T14:29:13.547Z,97926.59
2019-03-04T14:33:17.759Z,97917.84
2019-03-04T14:37:22.021Z,97910.53
2019-03-04T14:41:26.612Z,97919.86
2019-03-04T14:45:33.713Z,97898.24
2019-03-04T14:49:44.684Z,97898.64
2019-03-04T14:53:45.986Z,97896.34
2019-03-04T14:57:51.445Z,97890.48
2019-03-04T15:01:55.775Z,97885.92
2019-03-04T15:06:06.771Z,97892.69
2019-03-04T15:10:06.837Z,97893.77
2019-03-04T15:14:11.203Z,97893.77
2019-03-04T15:18:17.230Z,97889.11
2019-03-04T15:22:21.653Z,97879.63
2019-03-04T15:26:25.899Z,97876.22
2019-03-04T15:30:30.130Z,97886.38
2019-03-04T15:34:34.355Z,97890.75
2019-03-04T15:38:38.552Z,97896.64
2019-03-04T15:42:43.394Z,97897.21
2019-03-04T15:46:47.665Z,97903.67
2019-03-04T15:50:51.946Z,97896.59
2019-03-04T15:54:56.154Z,97911.98
2019-03-04T15:59:00.438Z,97922.88
2019-03-04T16:03:05.436Z,97940.88
2019-03-04T16:07:11.829Z,97961.23
2019-03-04T16:11:17.873Z,97981.41
2019-03-04T16:15:22.394Z,98002.95
2019-03-04T16:19:26.712Z,98029.70
2019-03-04T16:23:32.960Z,98066.70
2019-03-04T16:27:37.682Z,98103.70
2019-03-04T16:31:43.363Z,98140.25
2019-03-04T16:35:50.116Z,98179.06
2019-03-04T16:39:54.624Z,98196.27
2019-03-04T16:43:59.223Z,98247.36
2019-03-04T16:48:08.771Z,98266.72
2019-03-04T16:52:13.948Z,98258.29
2019-03-04T16:56:18.718Z,98282.16
2019-03-04T17:00:23.520Z,98288.61
2019-03-04T17:04:28.760Z,98318.17
2019-03-04T17:08:34.145Z,98338.47
2019-03-04T17:12:39.939Z,98357.38
2019-03-04T17:16:45.051Z,98380.94
2019-03-04T17:20:49.276Z,98412.22
2019-03-04T17:24:53.480Z,98425.94
2019-03-04T17:28:58.673Z,98444.87
2019-03-04T17:33:02.967Z,98465.09
2019-03-04T17:37:07.277Z,98481.30
2019-03-04T17:41:11.582Z,98496.95
2019-03-04T17:45:17.758Z,98495.35
2019-03-04T17:49:28.632Z,98503.30
2019-03-04T17:53:33.143Z,98535.55
2019-03-04T17:57:40.143Z,98539.57
2019-03-04T18:01:46.995Z,98528.12
2019-03-04T18:05:51.324Z,98519.55
2019-03-04T18:09:57.553Z,98505.80
2019-03-04T18:14:02.396Z,98505.78
2019-03-04T18:18:07.130Z,98502.88
2019-03-04T18:22:11.568Z,98495.19
2019-03-04T18:26:48.607Z,98483.52
2019-03-04T18:31:07.577Z,98474.88
2019-03-04T18:35:34.680Z,98476.36
2019-03-04T18:40:23.966Z,98466.77
2019-03-04T18:45:06.808Z,98463.37
2019-03-04T18:49:11.172Z,98492.39
2019-03-04T18:53:15.490Z,98492.39
2019-03-04T18:57:19.961Z,98490.55
2019-03-04T19:01:25.316Z,98486.60
2019-03-04T19:05:32.132Z,98486.57
2019-03-04T19:09:36.478Z,98499.78
2019-03-04T19:13:42.254Z,98500.25
2019-03-04T19:17:50.131Z,98471.18
2019-03-04T19:21:54.414Z,98475.56
2019-03-04T19:25:58.658Z,98457.11
2019-03-04T19:30:24.060Z,98440.86
2019-03-04T19:34:37.215Z,98469.47
2019-03-04T19:38:45.798Z,98462.45
2019-03-04T19:42:58.174Z,98462.45
2019-03-04T19:47:05.521Z,98469.00
2019-03-04T19:51:17.947Z,98448.93
2019-03-04T19:55:29.331Z,98456.38
2019-03-04T19:59:38.246Z,98462.94
2019-03-04T20:03:48.738Z,98462.94
2019-03-04T20:07:56.249Z,98454.54
2019-03-04T20:12:02.859Z,98454.54
2019-03-04T20:16:09.471Z,98452.82
2019-03-04T20:20:14.722Z,98448.84
2019-03-04T20:24:20.460Z,98466.89
2019-03-04T20:28:25.110Z,98461.63
2019-03-04T20:32:32.392Z,98458.52
2019-03-04T20:36:38.005Z,98462.02
2019-03-04T20:40:42.272Z,98470.30
2019-03-04T20:44:46.706Z,98446.11
2019-03-04T20:48:51.179Z,98457.94
2019-03-04T20:52:55.489Z,98463.67
2019-03-04T20:57:00.124Z,98455.27
2019-03-04T21:01:07.833Z,98460.57
2019-03-04T21:05:15.867Z,98458.70
2019-03-04T21:09:22.833Z,98463.41
2019-03-04T21:13:35.206Z,98453.72
2019-03-04T21:17:35.318Z,98430.87
2019-03-04T21:21:39.752Z,98429.53
2019-03-04T21:26:16.128Z,98429.89
2019-03-04T21:31:00.570Z,98446.14
2019-03-04T21:35:32.379Z,98443.41
2019-03-04T21:39:48.693Z,98414.03
2019-03-04T21:44:03.128Z,98424.94
2019-03-04T21:48:17.590Z,98425.87
2019-03-04T21:52:35.240Z,98421.09
2019-03-04T21:56:56.342Z,98421.09
2019-03-04T22:01:05.651Z,98440.38
2019-03-04T22:05:13.108Z,98440.38
2019-03-04T22:09:17.618Z,98458.53
2019-03-04T22:13:21.891Z,98458.53
2019-03-04T22:17:26.488Z,98467.86
2019-03-04T22:21:30.813Z,98563.27
2019-03-04T22:25:35.241Z,98585.72
2019-03-04T22:29:40.281Z,98585.72
2019-03-04T22:33:45.758Z,98572.62
2019-03-04T22:37:51.948Z,98575.26
2019-03-04T22:41:57.384Z,98612.86
2019-03-04T22:46:03.598Z,98612.86
2019-03-04T22:50:19.245Z,98612.83
2019-03-04T22:54:35.738Z,98617.66
2019-03-04T22:58:39.990Z,98642.84
2019-03-04T23:02:54.681Z,98643.75
2019-03-04T23:06:56.622Z,98640.27
2019-03-04T23:11:06.148Z,98650.85
2019-03-04T23:15:15.010Z,98669.53
2019-03-04T23:19:20.690Z,98669.53
2019-03-04T23:23:25.556Z,98692.11
2019-03-04T23:27:32.797Z,98705.80
2019-03-04T23:31:40.956Z,98742.39
2019-03-04T23:35:45.417Z,98742.39
2019-03-04T23:39:49.642Z,98750.36
2019-03-04T23:43:53.997Z,98766.22
2019-03-04T23:47:58.199Z,98773.34
2019-03-04T23:52:02.447Z,98773.81
2019-03-04T23:56:08.458Z,98792.28
